Princeton, MN

10:32 AM CDT on August 21, 2014 (GMT -0500)
Princeton Municipal | Change Station
CLOSE
Current Station
Airport
Location: Princeton,
Elevation: 978 ft
Nearby Weather Stations

Elev 978 ft 45.56 °N, 93.61 °W | Updated 17 minutes ago

Mostly Cloudy
Mostly Cloudy
75 °F
Feels Like 75 °F
N
7
Wind Variable Wind from SE

Today
High -- | Low -- °F
--% Chance of Precip.
Yesterday
High -- | Low -- °F
Precip. -- in
6:22 AM 8:11 PM
Waning Crescent, 14% visible
Pressure 29.78 in
Visibility 10.0 miles
Clouds Mostly Cloudy 700 ft
Dew Point 70 °F
Humidity 83%
Rainfall 0.77 in
Snow Depth Not available.
UV 3 out of 12
Pollen 3.90 out of 12
Air Quality Not available.
Flu Activity Not available.
METAR KPNM 211515Z AUTO 13006KT 10SM BKN007 24/21 A2978 RMK AO2

More Conditions Fewer Conditions

Pressure 29.78 in
Visibility 10.0 miles
Clouds Mostly Cloudy 700 ft
Dew Point 70 °F
Humidity 83%
Rainfall 0.77 in
Snow Depth Not available.
UV 3 out of 12
Pollen 3.90 out of 12
Air Quality Not available.
Flu Activity Not available.
METAR KPNM 211515Z AUTO 13006KT 10SM BKN007 24/21 A2978 RMK AO2

More Conditions Fewer Conditions

10-Day Weather Forecast

Almanac

Astronomy

Aug. 21, 2014 Rise Set
Actual Time 6:22 AM CDT 8:11 PM CDT
Civil Twilight 5:50 AM CDT 8:43 PM CDT
Nautical Twilight 5:11 AM CDT 9:21 PM CDT
Astronomical Twilight 4:29 AM CDT 10:04 PM CDT
Moon 2:48 AM CDT 5:45 PM CDT
Length of Visible Light 14h 52m
Length of Day
13h 49m
Tomorrow will be 2m 58s shorter.
Waning Crescent, 14% of the Moon is Illuminated
Today
Waning Crescent
Aug 25
New
Sep 2
First Quarter
Sep 8
Full
Sep 15
Last Quarter

Today's Extremes

State Highs State Lows

Community

WunderPhotos

Upload Photos

1,745,949 photos uploaded!

Nearby

Snow Depth

Station Depth Elevation
No new snow has been reported.

Earthquake Activity

City Distance Mag. Time & Date
No recent earthquake activity has been reported nearby.
Minimum magnitude displayed is 2.5.

Coastal Water Temperatures

Place Temperature
No Stations Reporting

Nearby Weather Stations